sensor_id;sensor_type;location;lat;lon;timestamp;P1;durP1;ratioP1;P2;durP2;ratioP2
73585;SDS011;61865;50.232;18.614;2023-04-25T00:02:12;20.92;;;11.43;;
73585;SDS011;61865;50.232;18.614;2023-04-25T00:04:34;17.98;;;12.07;;
73585;SDS011;61865;50.232;18.614;2023-04-25T00:06:58;16.60;;;11.50;;
73585;SDS011;61865;50.232;18.614;2023-04-25T00:09:23;15.45;;;10.43;;
73585;SDS011;61865;50.232;18.614;2023-04-25T00:11:45;14.48;;;10.77;;
73585;SDS011;61865;50.232;18.614;2023-04-25T00:14:07;17.75;;;10.02;;
73585;SDS011;61865;50.232;18.614;2023-04-25T00:16:30;17.20;;;10.43;;
73585;SDS011;61865;50.232;18.614;2023-04-25T00:18:53;14.15;;;8.73;;
73585;SDS011;61865;50.232;18.614;2023-04-25T00:21:15;16.48;;;10.48;;
73585;SDS011;61865;50.232;18.614;2023-04-25T00:23:38;11.57;;;8.02;;
73585;SDS011;61865;50.232;18.614;2023-04-25T00:26:01;10.50;;;7.22;;
73585;SDS011;61865;50.232;18.614;2023-04-25T00:28:23;9.65;;;7.20;;
73585;SDS011;61865;50.232;18.614;2023-04-25T00:30:45;10.07;;;7.00;;
73585;SDS011;61865;50.232;18.614;2023-04-25T00:33:07;13.00;;;7.30;;
73585;SDS011;61865;50.232;18.614;2023-04-25T00:35:29;8.57;;;5.63;;
73585;SDS011;61865;50.232;18.614;2023-04-25T00:37:51;10.48;;;5.78;;
73585;SDS011;61865;50.232;18.614;2023-04-25T00:40:13;7.22;;;5.22;;
73585;SDS011;61865;50.232;18.614;2023-04-25T00:42:36;9.95;;;6.28;;
73585;SDS011;61865;50.232;18.614;2023-04-25T00:44:59;11.50;;;5.53;;
73585;SDS011;61865;50.232;18.614;2023-04-25T00:47:21;9.20;;;5.65;;
73585;SDS011;61865;50.232;18.614;2023-04-25T00:49:44;8.75;;;5.97;;
73585;SDS011;61865;50.232;18.614;2023-04-25T00:52:06;7.97;;;5.20;;
73585;SDS011;61865;50.232;18.614;2023-04-25T00:54:28;8.38;;;5.55;;
73585;SDS011;61865;50.232;18.614;2023-04-25T00:56:50;7.72;;;5.55;;
73585;SDS011;61865;50.232;18.614;2023-04-25T00:59:15;10.00;;;5.55;;
73585;SDS011;61865;50.232;18.614;2023-04-25T01:01:36;9.32;;;5.65;;
73585;SDS011;61865;50.232;18.614;2023-04-25T01:04:00;9.00;;;5.25;;
73585;SDS011;61865;50.232;18.614;2023-04-25T01:06:22;8.93;;;5.40;;
73585;SDS011;61865;50.232;18.614;2023-04-25T01:08:44;7.80;;;5.10;;
73585;SDS011;61865;50.232;18.614;2023-04-25T01:11:06;7.40;;;5.05;;
73585;SDS011;61865;50.232;18.614;2023-04-25T01:13:28;7.60;;;5.15;;
73585;SDS011;61865;50.232;18.614;2023-04-25T01:15:51;10.25;;;6.05;;
73585;SDS011;61865;50.232;18.614;2023-04-25T01:18:13;6.28;;;4.57;;
73585;SDS011;61865;50.232;18.614;2023-04-25T01:20:36;6.55;;;4.65;;
73585;SDS011;61865;50.232;18.614;2023-04-25T01:23:00;8.63;;;4.80;;
73585;SDS011;61865;50.232;18.614;2023-04-25T01:25:23;5.65;;;4.30;;
73585;SDS011;61865;50.232;18.614;2023-04-25T01:27:45;7.85;;;4.32;;
73585;SDS011;61865;50.232;18.614;2023-04-25T01:30:08;7.05;;;4.53;;
73585;SDS011;61865;50.232;18.614;2023-04-25T01:32:31;6.32;;;3.75;;
73585;SDS011;61865;50.232;18.614;2023-04-25T01:34:58;6.15;;;4.10;;
73585;SDS011;61865;50.232;18.614;2023-04-25T01:37:20;7.28;;;4.18;;
73585;SDS011;61865;50.232;18.614;2023-04-25T01:39:43;7.47;;;4.20;;
73585;SDS011;61865;50.232;18.614;2023-04-25T01:42:06;9.55;;;4.35;;
73585;SDS011;61865;50.232;18.614;2023-04-25T01:44:27;5.88;;;3.70;;
73585;SDS011;61865;50.232;18.614;2023-04-25T01:46:49;6.45;;;3.40;;
73585;SDS011;61865;50.232;18.614;2023-04-25T01:49:11;5.35;;;3.10;;
73585;SDS011;61865;50.232;18.614;2023-04-25T01:51:33;8.75;;;3.78;;
73585;SDS011;61865;50.232;18.614;2023-04-25T01:53:55;6.32;;;3.22;;
73585;SDS011;61865;50.232;18.614;2023-04-25T01:56:19;4.80;;;2.60;;
73585;SDS011;61865;50.232;18.614;2023-04-25T01:58:41;4.68;;;3.00;;
73585;SDS011;61865;50.232;18.614;2023-04-25T02:01:03;4.28;;;2.63;;
73585;SDS011;61865;50.232;18.614;2023-04-25T02:03:25;5.88;;;2.50;;
73585;SDS011;61865;50.232;18.614;2023-04-25T02:05:47;4.82;;;3.00;;
73585;SDS011;61865;50.232;18.614;2023-04-25T02:08:09;6.60;;;3.00;;
73585;SDS011;61865;50.232;18.614;2023-04-25T02:10:31;10.55;;;2.67;;
73585;SDS011;61865;50.232;18.614;2023-04-25T02:12:54;4.32;;;2.67;;
73585;SDS011;61865;50.232;18.614;2023-04-25T02:15:16;3.67;;;2.60;;
73585;SDS011;61865;50.232;18.614;2023-04-25T02:17:38;4.13;;;2.72;;
73585;SDS011;61865;50.232;18.614;2023-04-25T02:19:59;3.92;;;2.78;;
73585;SDS011;61865;50.232;18.614;2023-04-25T02:22:21;6.32;;;2.63;;
73585;SDS011;61865;50.232;18.614;2023-04-25T02:24:43;3.67;;;2.70;;
73585;SDS011;61865;50.232;18.614;2023-04-25T02:27:05;3.67;;;2.75;;
73585;SDS011;61865;50.232;18.614;2023-04-25T02:29:29;4.88;;;2.88;;
73585;SDS011;61865;50.232;18.614;2023-04-25T02:31:51;3.60;;;2.53;;
73585;SDS011;61865;50.232;18.614;2023-04-25T02:34:12;3.38;;;2.40;;
73585;SDS011;61865;50.232;18.614;2023-04-25T02:36:34;2.83;;;2.35;;
73585;SDS011;61865;50.232;18.614;2023-04-25T02:38:56;2.85;;;2.35;;
73585;SDS011;61865;50.232;18.614;2023-04-25T02:41:18;4.18;;;2.33;;
73585;SDS011;61865;50.232;18.614;2023-04-25T02:43:40;7.15;;;2.45;;
73585;SDS011;61865;50.232;18.614;2023-04-25T02:46:04;3.92;;;2.53;;
73585;SDS011;61865;50.232;18.614;2023-04-25T02:48:27;3.35;;;2.47;;
73585;SDS011;61865;50.232;18.614;2023-04-25T02:50:49;2.78;;;2.35;;
73585;SDS011;61865;50.232;18.614;2023-04-25T02:53:11;3.85;;;2.50;;
73585;SDS011;61865;50.232;18.614;2023-04-25T02:55:33;3.10;;;2.30;;
73585;SDS011;61865;50.232;18.614;2023-04-25T02:57:55;4.55;;;2.30;;
73585;SDS011;61865;50.232;18.614;2023-04-25T03:00:17;2.38;;;2.08;;
73585;SDS011;61865;50.232;18.614;2023-04-25T03:02:40;5.65;;;2.53;;
73585;SDS011;61865;50.232;18.614;2023-04-25T03:05:02;5.00;;;2.28;;
73585;SDS011;61865;50.232;18.614;2023-04-25T03:07:24;2.28;;;2.08;;
73585;SDS011;61865;50.232;18.614;2023-04-25T03:09:46;6.25;;;2.53;;
73585;SDS011;61865;50.232;18.614;2023-04-25T03:12:08;2.90;;;2.28;;
73585;SDS011;61865;50.232;18.614;2023-04-25T03:14:30;4.90;;;2.70;;
73585;SDS011;61865;50.232;18.614;2023-04-25T03:16:52;3.97;;;2.20;;
73585;SDS011;61865;50.232;18.614;2023-04-25T03:19:15;4.53;;;2.72;;
73585;SDS011;61865;50.232;18.614;2023-04-25T03:21:41;4.20;;;2.47;;
73585;SDS011;61865;50.232;18.614;2023-04-25T03:24:04;3.42;;;2.70;;
73585;SDS011;61865;50.232;18.614;2023-04-25T03:26:26;5.20;;;2.45;;
73585;SDS011;61865;50.232;18.614;2023-04-25T03:28:48;3.17;;;2.20;;
73585;SDS011;61865;50.232;18.614;2023-04-25T03:31:10;5.18;;;2.30;;
73585;SDS011;61865;50.232;18.614;2023-04-25T03:33:32;3.58;;;2.33;;
73585;SDS011;61865;50.232;18.614;2023-04-25T03:35:55;3.20;;;2.40;;
73585;SDS011;61865;50.232;18.614;2023-04-25T03:38:17;3.40;;;2.65;;
73585;SDS011;61865;50.232;18.614;2023-04-25T03:40:39;5.07;;;2.63;;
73585;SDS011;61865;50.232;18.614;2023-04-25T03:43:00;3.85;;;2.78;;
73585;SDS011;61865;50.232;18.614;2023-04-25T03:45:23;3.38;;;2.40;;
73585;SDS011;61865;50.232;18.614;2023-04-25T03:47:44;3.25;;;2.45;;
73585;SDS011;61865;50.232;18.614;2023-04-25T03:50:06;4.57;;;2.67;;
73585;SDS011;61865;50.232;18.614;2023-04-25T03:52:30;3.15;;;2.40;;
73585;SDS011;61865;50.232;18.614;2023-04-25T03:54:52;7.50;;;2.70;;
73585;SDS011;61865;50.232;18.614;2023-04-25T03:57:14;5.07;;;3.13;;
73585;SDS011;61865;50.232;18.614;2023-04-25T03:59:36;5.03;;;3.25;;
73585;SDS011;61865;50.232;18.614;2023-04-25T04:01:58;3.45;;;2.60;;
73585;SDS011;61865;50.232;18.614;2023-04-25T04:04:20;5.47;;;2.90;;
73585;SDS011;61865;50.232;18.614;2023-04-25T04:06:41;5.22;;;2.88;;
73585;SDS011;61865;50.232;18.614;2023-04-25T04:09:05;4.80;;;3.10;;
73585;SDS011;61865;50.232;18.614;2023-04-25T04:11:30;4.20;;;2.70;;
73585;SDS011;61865;50.232;18.614;2023-04-25T04:13:52;4.25;;;3.08;;
73585;SDS011;61865;50.232;18.614;2023-04-25T04:16:14;5.13;;;3.20;;
73585;SDS011;61865;50.232;18.614;2023-04-25T04:18:36;4.68;;;3.00;;
73585;SDS011;61865;50.232;18.614;2023-04-25T04:20:58;4.70;;;3.40;;
73585;SDS011;61865;50.232;18.614;2023-04-25T04:23:20;5.45;;;3.17;;
73585;SDS011;61865;50.232;18.614;2023-04-25T04:25:44;3.95;;;2.80;;
73585;SDS011;61865;50.232;18.614;2023-04-25T04:28:06;5.38;;;3.40;;
73585;SDS011;61865;50.232;18.614;2023-04-25T04:30:29;10.02;;;3.95;;
73585;SDS011;61865;50.232;18.614;2023-04-25T04:32:51;5.25;;;3.58;;
73585;SDS011;61865;50.232;18.614;2023-04-25T04:35:13;3.97;;;2.95;;
73585;SDS011;61865;50.232;18.614;2023-04-25T04:37:35;4.93;;;3.50;;
73585;SDS011;61865;50.232;18.614;2023-04-25T04:39:57;4.20;;;3.20;;
73585;SDS011;61865;50.232;18.614;2023-04-25T04:42:20;9.82;;;3.75;;
73585;SDS011;61865;50.232;18.614;2023-04-25T04:44:42;5.07;;;3.35;;
73585;SDS011;61865;50.232;18.614;2023-04-25T04:47:04;11.13;;;3.25;;
73585;SDS011;61865;50.232;18.614;2023-04-25T04:49:26;5.45;;;3.65;;
73585;SDS011;61865;50.232;18.614;2023-04-25T04:51:48;5.68;;;3.42;;
73585;SDS011;61865;50.232;18.614;2023-04-25T04:54:10;5.20;;;3.67;;
73585;SDS011;61865;50.232;18.614;2023-04-25T04:56:32;5.35;;;3.28;;
73585;SDS011;61865;50.232;18.614;2023-04-25T04:58:56;5.43;;;3.45;;
73585;SDS011;61865;50.232;18.614;2023-04-25T05:01:18;6.25;;;3.90;;
73585;SDS011;61865;50.232;18.614;2023-04-25T05:03:40;5.22;;;3.40;;
73585;SDS011;61865;50.232;18.614;2023-04-25T05:06:02;9.52;;;4.07;;
73585;SDS011;61865;50.232;18.614;2023-04-25T05:08:25;11.02;;;4.15;;
73585;SDS011;61865;50.232;18.614;2023-04-25T05:10:47;6.45;;;4.40;;
73585;SDS011;61865;50.232;18.614;2023-04-25T05:13:09;7.72;;;4.72;;
73585;SDS011;61865;50.232;18.614;2023-04-25T05:15:32;6.63;;;4.43;;
73585;SDS011;61865;50.232;18.614;2023-04-25T05:17:54;6.68;;;4.70;;
73585;SDS011;61865;50.232;18.614;2023-04-25T05:20:15;7.07;;;4.53;;
73585;SDS011;61865;50.232;18.614;2023-04-25T05:22:40;6.40;;;4.75;;
73585;SDS011;61865;50.232;18.614;2023-04-25T05:25:02;7.68;;;4.75;;
73585;SDS011;61865;50.232;18.614;2023-04-25T05:27:25;6.93;;;5.00;;
73585;SDS011;61865;50.232;18.614;2023-04-25T05:29:47;6.43;;;4.50;;
73585;SDS011;61865;50.232;18.614;2023-04-25T05:32:10;6.85;;;4.40;;
73585;SDS011;61865;50.232;18.614;2023-04-25T05:34:32;9.63;;;4.40;;
73585;SDS011;61865;50.232;18.614;2023-04-25T05:36:54;7.50;;;4.93;;
73585;SDS011;61865;50.232;18.614;2023-04-25T05:39:16;7.13;;;4.70;;
73585;SDS011;61865;50.232;18.614;2023-04-25T05:41:38;6.88;;;4.70;;
73585;SDS011;61865;50.232;18.614;2023-04-25T05:44:00;8.07;;;4.55;;
73585;SDS011;61865;50.232;18.614;2023-04-25T05:46:22;7.80;;;5.22;;
73585;SDS011;61865;50.232;18.614;2023-04-25T05:48:46;7.47;;;4.90;;
73585;SDS011;61865;50.232;18.614;2023-04-25T05:51:09;7.95;;;4.82;;
73585;SDS011;61865;50.232;18.614;2023-04-25T05:53:31;8.38;;;4.97;;
73585;SDS011;61865;50.232;18.614;2023-04-25T05:55:53;8.07;;;5.05;;
73585;SDS011;61865;50.232;18.614;2023-04-25T05:58:14;7.32;;;5.10;;
73585;SDS011;61865;50.232;18.614;2023-04-25T06:00:36;9.57;;;5.47;;
73585;SDS011;61865;50.232;18.614;2023-04-25T06:02:58;7.85;;;5.50;;
73585;SDS011;61865;50.232;18.614;2023-04-25T06:05:22;8.68;;;4.68;;
73585;SDS011;61865;50.232;18.614;2023-04-25T06:07:44;7.53;;;5.10;;
73585;SDS011;61865;50.232;18.614;2023-04-25T06:10:06;9.65;;;5.55;;
73585;SDS011;61865;50.232;18.614;2023-04-25T06:12:29;9.15;;;5.88;;
73585;SDS011;61865;50.232;18.614;2023-04-25T06:14:51;7.43;;;5.45;;
73585;SDS011;61865;50.232;18.614;2023-04-25T06:17:12;10.80;;;5.78;;
73585;SDS011;61865;50.232;18.614;2023-04-25T06:19:35;9.40;;;5.63;;
73585;SDS011;61865;50.232;18.614;2023-04-25T06:21:58;10.00;;;5.03;;
73585;SDS011;61865;50.232;18.614;2023-04-25T06:24:20;11.88;;;5.43;;
73585;SDS011;61865;50.232;18.614;2023-04-25T06:26:42;9.52;;;5.43;;
73585;SDS011;61865;50.232;18.614;2023-04-25T06:29:04;9.13;;;4.88;;
73585;SDS011;61865;50.232;18.614;2023-04-25T06:31:26;9.65;;;5.35;;
73585;SDS011;61865;50.232;18.614;2023-04-25T06:33:48;8.73;;;5.68;;
73585;SDS011;61865;50.232;18.614;2023-04-25T06:36:10;6.93;;;4.85;;
73585;SDS011;61865;50.232;18.614;2023-04-25T06:38:33;10.95;;;5.20;;
73585;SDS011;61865;50.232;18.614;2023-04-25T06:40:55;7.97;;;5.15;;
73585;SDS011;61865;50.232;18.614;2023-04-25T06:43:17;8.75;;;5.15;;
73585;SDS011;61865;50.232;18.614;2023-04-25T06:45:39;8.25;;;4.93;;
73585;SDS011;61865;50.232;18.614;2023-04-25T06:48:02;6.70;;;4.80;;
73585;SDS011;61865;50.232;18.614;2023-04-25T06:50:24;8.70;;;4.93;;
73585;SDS011;61865;50.232;18.614;2023-04-25T06:52:46;7.80;;;5.35;;
73585;SDS011;61865;50.232;18.614;2023-04-25T06:55:09;6.93;;;4.75;;
73585;SDS011;61865;50.232;18.614;2023-04-25T06:57:31;9.77;;;5.53;;
73585;SDS011;61865;50.232;18.614;2023-04-25T06:59:53;8.98;;;5.15;;
73585;SDS011;61865;50.232;18.614;2023-04-25T07:02:15;6.55;;;4.72;;
73585;SDS011;61865;50.232;18.614;2023-04-25T07:04:37;6.78;;;5.15;;
73585;SDS011;61865;50.232;18.614;2023-04-25T07:06:58;8.48;;;5.50;;
73585;SDS011;61865;50.232;18.614;2023-04-25T07:09:22;8.70;;;5.47;;
73585;SDS011;61865;50.232;18.614;2023-04-25T07:11:45;8.57;;;5.60;;
73585;SDS011;61865;50.232;18.614;2023-04-25T07:14:07;8.80;;;5.47;;
73585;SDS011;61865;50.232;18.614;2023-04-25T07:16:29;8.30;;;5.78;;
73585;SDS011;61865;50.232;18.614;2023-04-25T07:18:51;7.38;;;5.43;;
73585;SDS011;61865;50.232;18.614;2023-04-25T07:21:13;10.93;;;5.35;;
73585;SDS011;61865;50.232;18.614;2023-04-25T07:23:35;10.27;;;5.30;;
73585;SDS011;61865;50.232;18.614;2023-04-25T07:25:58;7.68;;;5.35;;
73585;SDS011;61865;50.232;18.614;2023-04-25T07:28:22;8.27;;;5.00;;
73585;SDS011;61865;50.232;18.614;2023-04-25T07:30:43;7.63;;;4.85;;
73585;SDS011;61865;50.232;18.614;2023-04-25T07:33:05;7.82;;;4.80;;
73585;SDS011;61865;50.232;18.614;2023-04-25T07:35:27;6.47;;;4.38;;
73585;SDS011;61865;50.232;18.614;2023-04-25T07:37:49;8.85;;;5.00;;
73585;SDS011;61865;50.232;18.614;2023-04-25T07:40:11;11.93;;;4.88;;
73585;SDS011;61865;50.232;18.614;2023-04-25T07:42:33;8.50;;;5.10;;
73585;SDS011;61865;50.232;18.614;2023-04-25T07:44:56;6.30;;;4.32;;
73585;SDS011;61865;50.232;18.614;2023-04-25T07:47:18;6.72;;;4.90;;
73585;SDS011;61865;50.232;18.614;2023-04-25T07:49:40;8.95;;;5.75;;
73585;SDS011;61865;50.232;18.614;2023-04-25T07:52:02;10.30;;;5.80;;
73585;SDS011;61865;50.232;18.614;2023-04-25T07:54:26;6.78;;;4.53;;
73585;SDS011;61865;50.232;18.614;2023-04-25T07:56:47;7.28;;;4.15;;
73585;SDS011;61865;50.232;18.614;2023-04-25T07:59:09;6.28;;;3.97;;
73585;SDS011;61865;50.232;18.614;2023-04-25T08:01:33;6.75;;;4.20;;
73585;SDS011;61865;50.232;18.614;2023-04-25T08:03:55;8.05;;;4.00;;
73585;SDS011;61865;50.232;18.614;2023-04-25T08:06:17;7.82;;;4.70;;
73585;SDS011;61865;50.232;18.614;2023-04-25T08:08:39;8.15;;;4.85;;
73585;SDS011;61865;50.232;18.614;2023-04-25T08:11:02;7.95;;;4.53;;
73585;SDS011;61865;50.232;18.614;2023-04-25T08:13:24;7.60;;;4.05;;
73585;SDS011;61865;50.232;18.614;2023-04-25T08:15:46;7.28;;;3.72;;
73585;SDS011;61865;50.232;18.614;2023-04-25T08:18:11;5.82;;;3.83;;
73585;SDS011;61865;50.232;18.614;2023-04-25T08:20:33;7.88;;;4.68;;
73585;SDS011;61865;50.232;18.614;2023-04-25T08:22:55;6.85;;;4.00;;
73585;SDS011;61865;50.232;18.614;2023-04-25T08:25:17;5.43;;;3.78;;
73585;SDS011;61865;50.232;18.614;2023-04-25T08:27:39;7.22;;;3.85;;
73585;SDS011;61865;50.232;18.614;2023-04-25T08:30:01;7.25;;;3.75;;
73585;SDS011;61865;50.232;18.614;2023-04-25T08:32:23;7.72;;;3.72;;
73585;SDS011;61865;50.232;18.614;2023-04-25T08:34:47;6.97;;;3.63;;
73585;SDS011;61865;50.232;18.614;2023-04-25T08:37:09;5.75;;;3.75;;
73585;SDS011;61865;50.232;18.614;2023-04-25T08:39:31;6.35;;;3.58;;
73585;SDS011;61865;50.232;18.614;2023-04-25T08:41:53;7.70;;;3.65;;
73585;SDS011;61865;50.232;18.614;2023-04-25T08:44:15;7.68;;;3.83;;
73585;SDS011;61865;50.232;18.614;2023-04-25T08:46:37;7.97;;;3.17;;
73585;SDS011;61865;50.232;18.614;2023-04-25T08:49:01;6.30;;;3.53;;
73585;SDS011;61865;50.232;18.614;2023-04-25T08:51:24;5.70;;;3.88;;
73585;SDS011;61865;50.232;18.614;2023-04-25T08:53:48;7.57;;;4.00;;
73585;SDS011;61865;50.232;18.614;2023-04-25T08:56:11;7.07;;;4.13;;
73585;SDS011;61865;50.232;18.614;2023-04-25T08:58:37;4.55;;;3.15;;
73585;SDS011;61865;50.232;18.614;2023-04-25T09:00:59;6.63;;;3.20;;
73585;SDS011;61865;50.232;18.614;2023-04-25T09:03:21;7.65;;;3.72;;
73585;SDS011;61865;50.232;18.614;2023-04-25T09:05:43;9.85;;;3.42;;
73585;SDS011;61865;50.232;18.614;2023-04-25T09:08:07;6.05;;;3.22;;
73585;SDS011;61865;50.232;18.614;2023-04-25T09:10:29;8.43;;;3.50;;
73585;SDS011;61865;50.232;18.614;2023-04-25T09:13:04;6.55;;;3.20;;
73585;SDS011;61865;50.232;18.614;2023-04-25T09:15:26;4.95;;;3.28;;
73585;SDS011;61865;50.232;18.614;2023-04-25T09:17:54;7.07;;;3.13;;
73585;SDS011;61865;50.232;18.614;2023-04-25T09:20:16;3.80;;;2.70;;
73585;SDS011;61865;50.232;18.614;2023-04-25T09:22:38;6.78;;;3.47;;
73585;SDS011;61865;50.232;18.614;2023-04-25T09:25:04;8.95;;;3.38;;
73585;SDS011;61865;50.232;18.614;2023-04-25T09:27:29;4.93;;;2.83;;
73585;SDS011;61865;50.232;18.614;2023-04-25T09:29:56;5.35;;;2.80;;
73585;SDS011;61865;50.232;18.614;2023-04-25T09:32:20;6.35;;;3.10;;
73585;SDS011;61865;50.232;18.614;2023-04-25T09:34:43;6.07;;;2.92;;
73585;SDS011;61865;50.232;18.614;2023-04-25T09:37:09;7.85;;;3.20;;
73585;SDS011;61865;50.232;18.614;2023-04-25T09:39:32;6.40;;;2.80;;
73585;SDS011;61865;50.232;18.614;2023-04-25T09:41:56;6.93;;;3.67;;
73585;SDS011;61865;50.232;18.614;2023-04-25T09:44:22;9.85;;;3.40;;
73585;SDS011;61865;50.232;18.614;2023-04-25T09:46:44;6.60;;;3.20;;
73585;SDS011;61865;50.232;18.614;2023-04-25T09:49:13;9.60;;;3.67;;
73585;SDS011;61865;50.232;18.614;2023-04-25T09:51:36;6.78;;;3.90;;
73585;SDS011;61865;50.232;18.614;2023-04-25T09:53:58;5.35;;;3.08;;
73585;SDS011;61865;50.232;18.614;2023-04-25T09:56:20;8.23;;;3.58;;
73585;SDS011;61865;50.232;18.614;2023-04-25T09:58:44;7.85;;;3.65;;
73585;SDS011;61865;50.232;18.614;2023-04-25T10:01:10;6.05;;;3.67;;
73585;SDS011;61865;50.232;18.614;2023-04-25T10:03:33;6.57;;;3.30;;
73585;SDS011;61865;50.232;18.614;2023-04-25T10:05:56;6.63;;;3.65;;
73585;SDS011;61865;50.232;18.614;2023-04-25T10:08:20;5.20;;;3.47;;
73585;SDS011;61865;50.232;18.614;2023-04-25T10:10:43;8.07;;;3.92;;
73585;SDS011;61865;50.232;18.614;2023-04-25T10:13:06;6.45;;;3.40;;
73585;SDS011;61865;50.232;18.614;2023-04-25T10:15:30;6.68;;;3.58;;
73585;SDS011;61865;50.232;18.614;2023-04-25T10:17:54;5.47;;;3.30;;
73585;SDS011;61865;50.232;18.614;2023-04-25T10:20:16;6.80;;;3.35;;
73585;SDS011;61865;50.232;18.614;2023-04-25T10:22:39;4.70;;;2.90;;
73585;SDS011;61865;50.232;18.614;2023-04-25T10:25:03;6.90;;;3.53;;
73585;SDS011;61865;50.232;18.614;2023-04-25T10:27:28;7.32;;;3.10;;
73585;SDS011;61865;50.232;18.614;2023-04-25T10:29:59;8.60;;;3.38;;
73585;SDS011;61865;50.232;18.614;2023-04-25T10:32:25;6.43;;;3.03;;
73585;SDS011;61865;50.232;18.614;2023-04-25T10:34:47;8.88;;;3.58;;
73585;SDS011;61865;50.232;18.614;2023-04-25T10:37:10;5.68;;;3.50;;
73585;SDS011;61865;50.232;18.614;2023-04-25T10:39:32;8.35;;;3.55;;
73585;SDS011;61865;50.232;18.614;2023-04-25T10:41:55;6.65;;;4.03;;
73585;SDS011;61865;50.232;18.614;2023-04-25T10:44:18;7.97;;;3.90;;
73585;SDS011;61865;50.232;18.614;2023-04-25T10:46:40;6.22;;;3.47;;
73585;SDS011;61865;50.232;18.614;2023-04-25T10:49:03;6.07;;;3.72;;
73585;SDS011;61865;50.232;18.614;2023-04-25T10:51:26;8.13;;;3.35;;
73585;SDS011;61865;50.232;18.614;2023-04-25T10:53:58;7.80;;;3.20;;
73585;SDS011;61865;50.232;18.614;2023-04-25T10:56:21;6.07;;;3.15;;
73585;SDS011;61865;50.232;18.614;2023-04-25T10:58:44;5.00;;;2.80;;
73585;SDS011;61865;50.232;18.614;2023-04-25T11:01:06;5.85;;;3.70;;
73585;SDS011;61865;50.232;18.614;2023-04-25T11:03:28;6.22;;;3.15;;
73585;SDS011;61865;50.232;18.614;2023-04-25T11:05:51;4.57;;;2.63;;
73585;SDS011;61865;50.232;18.614;2023-04-25T11:08:14;7.28;;;3.75;;
73585;SDS011;61865;50.232;18.614;2023-04-25T11:10:48;8.43;;;3.50;;
73585;SDS011;61865;50.232;18.614;2023-04-25T11:13:10;4.78;;;2.92;;
73585;SDS011;61865;50.232;18.614;2023-04-25T11:15:32;8.18;;;3.30;;
73585;SDS011;61865;50.232;18.614;2023-04-25T11:17:54;6.10;;;2.75;;
73585;SDS011;61865;50.232;18.614;2023-04-25T11:20:16;4.47;;;2.50;;
73585;SDS011;61865;50.232;18.614;2023-04-25T11:22:40;5.97;;;2.97;;
73585;SDS011;61865;50.232;18.614;2023-04-25T11:25:06;5.90;;;3.17;;
73585;SDS011;61865;50.232;18.614;2023-04-25T11:27:28;4.80;;;3.15;;
73585;SDS011;61865;50.232;18.614;2023-04-25T11:29:50;6.15;;;3.03;;
73585;SDS011;61865;50.232;18.614;2023-04-25T11:32:12;6.35;;;3.30;;
73585;SDS011;61865;50.232;18.614;2023-04-25T11:34:33;4.75;;;2.80;;
73585;SDS011;61865;50.232;18.614;2023-04-25T11:36:56;6.22;;;2.85;;
73585;SDS011;61865;50.232;18.614;2023-04-25T11:39:19;8.07;;;3.00;;
73585;SDS011;61865;50.232;18.614;2023-04-25T11:41:41;6.60;;;2.97;;
73585;SDS011;61865;50.232;18.614;2023-04-25T11:44:03;6.40;;;3.40;;
73585;SDS011;61865;50.232;18.614;2023-04-25T11:46:26;4.40;;;3.10;;
73585;SDS011;61865;50.232;18.614;2023-04-25T11:48:48;6.13;;;3.20;;
73585;SDS011;61865;50.232;18.614;2023-04-25T11:51:10;6.78;;;3.10;;
73585;SDS011;61865;50.232;18.614;2023-04-25T11:53:33;4.90;;;3.13;;
73585;SDS011;61865;50.232;18.614;2023-04-25T11:55:57;6.38;;;3.45;;
73585;SDS011;61865;50.232;18.614;2023-04-25T11:58:19;5.85;;;3.50;;
73585;SDS011;61865;50.232;18.614;2023-04-25T12:00:41;5.90;;;3.25;;
73585;SDS011;61865;50.232;18.614;2023-04-25T12:03:03;9.70;;;3.33;;
73585;SDS011;61865;50.232;18.614;2023-04-25T12:05:25;6.80;;;3.40;;
73585;SDS011;61865;50.232;18.614;2023-04-25T12:07:48;5.28;;;2.80;;
73585;SDS011;61865;50.232;18.614;2023-04-25T12:10:11;5.57;;;3.00;;
73585;SDS011;61865;50.232;18.614;2023-04-25T12:12:35;4.70;;;2.95;;
73585;SDS011;61865;50.232;18.614;2023-04-25T12:15:07;6.90;;;3.50;;
73585;SDS011;61865;50.232;18.614;2023-04-25T12:17:30;4.90;;;3.10;;
73585;SDS011;61865;50.232;18.614;2023-04-25T12:19:51;8.02;;;3.25;;
73585;SDS011;61865;50.232;18.614;2023-04-25T12:22:20;5.05;;;3.60;;
73585;SDS011;61865;50.232;18.614;2023-04-25T12:24:44;6.75;;;3.00;;
73585;SDS011;61865;50.232;18.614;2023-04-25T12:27:06;6.03;;;3.45;;
73585;SDS011;61865;50.232;18.614;2023-04-25T12:29:31;9.65;;;3.53;;
73585;SDS011;61865;50.232;18.614;2023-04-25T12:31:54;5.10;;;3.13;;
73585;SDS011;61865;50.232;18.614;2023-04-25T12:34:17;5.82;;;3.42;;
73585;SDS011;61865;50.232;18.614;2023-04-25T12:36:39;5.88;;;3.13;;
73585;SDS011;61865;50.232;18.614;2023-04-25T12:39:01;5.38;;;3.28;;
73585;SDS011;61865;50.232;18.614;2023-04-25T12:41:24;8.27;;;3.42;;
73585;SDS011;61865;50.232;18.614;2023-04-25T12:43:46;5.75;;;3.25;;
73585;SDS011;61865;50.232;18.614;2023-04-25T12:46:09;3.58;;;2.85;;
73585;SDS011;61865;50.232;18.614;2023-04-25T12:48:31;7.53;;;3.17;;
73585;SDS011;61865;50.232;18.614;2023-04-25T12:50:52;5.60;;;3.40;;
73585;SDS011;61865;50.232;18.614;2023-04-25T12:53:14;7.53;;;3.40;;
73585;SDS011;61865;50.232;18.614;2023-04-25T12:55:37;9.00;;;3.35;;
73585;SDS011;61865;50.232;18.614;2023-04-25T12:57:59;5.25;;;3.00;;
73585;SDS011;61865;50.232;18.614;2023-04-25T13:00:20;6.40;;;3.40;;
73585;SDS011;61865;50.232;18.614;2023-04-25T13:02:44;5.03;;;3.40;;
73585;SDS011;61865;50.232;18.614;2023-04-25T13:05:06;9.98;;;3.60;;
73585;SDS011;61865;50.232;18.614;2023-04-25T13:07:28;5.57;;;3.63;;
73585;SDS011;61865;50.232;18.614;2023-04-25T13:09:50;5.47;;;3.08;;
73585;SDS011;61865;50.232;18.614;2023-04-25T13:12:12;6.18;;;2.80;;
73585;SDS011;61865;50.232;18.614;2023-04-25T13:14:35;7.13;;;3.33;;
73585;SDS011;61865;50.232;18.614;2023-04-25T13:16:57;6.38;;;3.00;;
73585;SDS011;61865;50.232;18.614;2023-04-25T13:19:23;4.35;;;2.75;;
73585;SDS011;61865;50.232;18.614;2023-04-25T13:21:46;4.68;;;3.22;;
73585;SDS011;61865;50.232;18.614;2023-04-25T13:24:07;5.20;;;3.08;;
73585;SDS011;61865;50.232;18.614;2023-04-25T13:26:29;4.85;;;3.13;;
73585;SDS011;61865;50.232;18.614;2023-04-25T13:28:51;6.38;;;3.05;;
73585;SDS011;61865;50.232;18.614;2023-04-25T13:31:13;7.38;;;3.92;;
73585;SDS011;61865;50.232;18.614;2023-04-25T13:33:35;5.40;;;3.03;;
73585;SDS011;61865;50.232;18.614;2023-04-25T13:36:00;5.20;;;3.40;;
73585;SDS011;61865;50.232;18.614;2023-04-25T13:38:22;5.70;;;3.45;;
73585;SDS011;61865;50.232;18.614;2023-04-25T13:40:45;6.47;;;3.40;;
73585;SDS011;61865;50.232;18.614;2023-04-25T13:43:07;8.20;;;3.78;;
73585;SDS011;61865;50.232;18.614;2023-04-25T13:45:28;9.73;;;4.22;;
73585;SDS011;61865;50.232;18.614;2023-04-25T13:47:50;6.00;;;3.47;;
73585;SDS011;61865;50.232;18.614;2023-04-25T13:50:13;9.20;;;4.57;;
73585;SDS011;61865;50.232;18.614;2023-04-25T13:52:42;6.60;;;3.42;;
73585;SDS011;61865;50.232;18.614;2023-04-25T13:55:05;6.50;;;3.55;;
73585;SDS011;61865;50.232;18.614;2023-04-25T13:57:28;8.65;;;3.58;;
73585;SDS011;61865;50.232;18.614;2023-04-25T13:59:51;6.68;;;2.97;;
73585;SDS011;61865;50.232;18.614;2023-04-25T14:02:13;7.28;;;4.38;;
73585;SDS011;61865;50.232;18.614;2023-04-25T14:04:35;6.97;;;4.05;;
73585;SDS011;61865;50.232;18.614;2023-04-25T14:06:57;2.50;;;2.28;;